sensor_id;sensor_type;location;lat;lon;timestamp;temperature;humidity
25366;DHT22;13315;48.274;-1.900;2022-11-18T00:02:02;14.00;81.20
25366;DHT22;13315;48.274;-1.900;2022-11-18T00:04:28;14.00;81.60
25366;DHT22;13315;48.274;-1.900;2022-11-18T00:06:53;14.00;81.70
25366;DHT22;13315;48.274;-1.900;2022-11-18T00:09:19;14.00;81.60
25366;DHT22;13315;48.274;-1.900;2022-11-18T00:11:44;14.00;81.80
25366;DHT22;13315;48.274;-1.900;2022-11-18T00:14:29;14.00;81.90
25366;DHT22;13315;48.274;-1.900;2022-11-18T00:16:55;14.00;81.40
25366;DHT22;13315;48.274;-1.900;2022-11-18T00:19:22;14.00;81.30
25366;DHT22;13315;48.274;-1.900;2022-11-18T00:21:48;14.00;81.90
25366;DHT22;13315;48.274;-1.900;2022-11-18T00:24:13;14.00;81.30
25366;DHT22;13315;48.274;-1.900;2022-11-18T00:26:39;14.00;81.70
25366;DHT22;13315;48.274;-1.900;2022-11-18T00:29:05;14.00;81.60
25366;DHT22;13315;48.274;-1.900;2022-11-18T00:31:30;14.00;81.60
25366;DHT22;13315;48.274;-1.900;2022-11-18T00:33:56;14.00;81.70
25366;DHT22;13315;48.274;-1.900;2022-11-18T00:36:21;14.00;81.30
25366;DHT22;13315;48.274;-1.900;2022-11-18T00:38:47;14.00;81.40
25366;DHT22;13315;48.274;-1.900;2022-11-18T00:41:13;14.00;81.60
25366;DHT22;13315;48.274;-1.900;2022-11-18T00:43:39;14.00;81.40
25366;DHT22;13315;48.274;-1.900;2022-11-18T00:46:05;13.90;81.30
25366;DHT22;13315;48.274;-1.900;2022-11-18T00:48:32;13.90;81.90
25366;DHT22;13315;48.274;-1.900;2022-11-18T00:50:58;13.90;81.30
25366;DHT22;13315;48.274;-1.900;2022-11-18T00:53:30;14.00;81.60
25366;DHT22;13315;48.274;-1.900;2022-11-18T00:55:55;13.90;81.80
25366;DHT22;13315;48.274;-1.900;2022-11-18T00:58:21;13.90;81.50
25366;DHT22;13315;48.274;-1.900;2022-11-18T01:00:51;13.90;81.50
25366;DHT22;13315;48.274;-1.900;2022-11-18T01:03:17;13.90;81.80
25366;DHT22;13315;48.274;-1.900;2022-11-18T01:05:43;13.90;81.40
25366;DHT22;13315;48.274;-1.900;2022-11-18T01:08:09;13.90;81.40
25366;DHT22;13315;48.274;-1.900;2022-11-18T01:10:35;13.90;81.50
25366;DHT22;13315;48.274;-1.900;2022-11-18T01:13:01;13.90;81.50
25366;DHT22;13315;48.274;-1.900;2022-11-18T01:18:14;13.90;81.80
25366;DHT22;13315;48.274;-1.900;2022-11-18T01:20:40;13.90;82.00
25366;DHT22;13315;48.274;-1.900;2022-11-18T01:23:05;13.90;81.80
25366;DHT22;13315;48.274;-1.900;2022-11-18T01:25:31;13.90;81.50
25366;DHT22;13315;48.274;-1.900;2022-11-18T01:27:57;13.90;81.60
25366;DHT22;13315;48.274;-1.900;2022-11-18T01:30:22;13.90;81.50
25366;DHT22;13315;48.274;-1.900;2022-11-18T01:32:48;13.90;81.60
25366;DHT22;13315;48.274;-1.900;2022-11-18T01:35:14;13.90;81.50
25366;DHT22;13315;48.274;-1.900;2022-11-18T01:37:39;13.90;81.30
25366;DHT22;13315;48.274;-1.900;2022-11-18T01:40:06;13.90;81.50
25366;DHT22;13315;48.274;-1.900;2022-11-18T01:42:31;13.90;81.50
25366;DHT22;13315;48.274;-1.900;2022-11-18T01:47:24;13.90;81.60
25366;DHT22;13315;48.274;-1.900;2022-11-18T01:49:50;14.00;82.00
25366;DHT22;13315;48.274;-1.900;2022-11-18T01:52:15;14.00;81.50
25366;DHT22;13315;48.274;-1.900;2022-11-18T01:54:42;14.00;81.70
25366;DHT22;13315;48.274;-1.900;2022-11-18T01:57:11;14.00;81.90
25366;DHT22;13315;48.274;-1.900;2022-11-18T01:59:38;14.00;81.60
25366;DHT22;13315;48.274;-1.900;2022-11-18T02:02:07;14.00;81.80
25366;DHT22;13315;48.274;-1.900;2022-11-18T02:04:33;14.00;81.50
25366;DHT22;13315;48.274;-1.900;2022-11-18T02:06:58;14.00;81.50
25366;DHT22;13315;48.274;-1.900;2022-11-18T02:09:24;14.00;81.60
25366;DHT22;13315;48.274;-1.900;2022-11-18T02:11:50;14.00;81.50
25366;DHT22;13315;48.274;-1.900;2022-11-18T02:14:16;14.00;81.60
25366;DHT22;13315;48.274;-1.900;2022-11-18T02:29:39;13.90;81.20
25366;DHT22;13315;48.274;-1.900;2022-11-18T02:32:12;13.90;81.40
25366;DHT22;13315;48.274;-1.900;2022-11-18T02:35:02;13.90;81.50
25366;DHT22;13315;48.274;-1.900;2022-11-18T02:37:42;13.90;81.30
25366;DHT22;13315;48.274;-1.900;2022-11-18T02:42:34;13.90;81.60
25366;DHT22;13315;48.274;-1.900;2022-11-18T02:45:02;13.90;81.20
25366;DHT22;13315;48.274;-1.900;2022-11-18T02:47:29;13.90;81.40
25366;DHT22;13315;48.274;-1.900;2022-11-18T02:49:57;13.90;81.60
25366;DHT22;13315;48.274;-1.900;2022-11-18T02:52:24;13.90;81.50
25366;DHT22;13315;48.274;-1.900;2022-11-18T02:54:51;13.90;81.40
25366;DHT22;13315;48.274;-1.900;2022-11-18T02:57:17;13.90;81.80
25366;DHT22;13315;48.274;-1.900;2022-11-18T02:59:43;13.90;81.50
25366;DHT22;13315;48.274;-1.900;2022-11-18T03:02:13;13.90;81.40
25366;DHT22;13315;48.274;-1.900;2022-11-18T03:04:39;13.90;81.70
25366;DHT22;13315;48.274;-1.900;2022-11-18T03:09:35;13.90;81.50
25366;DHT22;13315;48.274;-1.900;2022-11-18T03:17:09;13.90;81.50
25366;DHT22;13315;48.274;-1.900;2022-11-18T03:19:43;13.80;81.50
25366;DHT22;13315;48.274;-1.900;2022-11-18T03:22:16;13.90;81.50
25366;DHT22;13315;48.274;-1.900;2022-11-18T03:24:46;13.80;81.60
25366;DHT22;13315;48.274;-1.900;2022-11-18T03:27:23;13.90;81.80
25366;DHT22;13315;48.274;-1.900;2022-11-18T03:29:55;13.80;81.40
25366;DHT22;13315;48.274;-1.900;2022-11-18T03:32:23;13.80;81.20
25366;DHT22;13315;48.274;-1.900;2022-11-18T03:34:58;13.80;81.40
25366;DHT22;13315;48.274;-1.900;2022-11-18T03:37:25;13.80;81.70
25366;DHT22;13315;48.274;-1.900;2022-11-18T03:39:52;13.90;81.50
25366;DHT22;13315;48.274;-1.900;2022-11-18T03:42:34;13.90;81.80
25366;DHT22;13315;48.274;-1.900;2022-11-18T03:45:44;13.90;81.70
25366;DHT22;13315;48.274;-1.900;2022-11-18T03:48:01;13.90;81.70
25366;DHT22;13315;48.274;-1.900;2022-11-18T03:50:29;13.90;81.50
25366;DHT22;13315;48.274;-1.900;2022-11-18T03:52:56;13.90;81.40
25366;DHT22;13315;48.274;-1.900;2022-11-18T03:55:23;13.90;81.60
25366;DHT22;13315;48.274;-1.900;2022-11-18T03:58:09;13.90;81.70
25366;DHT22;13315;48.274;-1.900;2022-11-18T04:00:37;13.90;81.50
25366;DHT22;13315;48.274;-1.900;2022-11-18T04:03:05;13.80;81.30
25366;DHT22;13315;48.274;-1.900;2022-11-18T04:05:32;13.80;81.10
25366;DHT22;13315;48.274;-1.900;2022-11-18T04:08:00;13.80;81.20
25366;DHT22;13315;48.274;-1.900;2022-11-18T04:13:37;13.80;81.40
25366;DHT22;13315;48.274;-1.900;2022-11-18T04:15:40;13.80;81.60
25366;DHT22;13315;48.274;-1.900;2022-11-18T04:18:06;13.80;81.60
25366;DHT22;13315;48.274;-1.900;2022-11-18T04:20:32;13.80;81.60
25366;DHT22;13315;48.274;-1.900;2022-11-18T04:22:58;13.80;81.60
25366;DHT22;13315;48.274;-1.900;2022-11-18T04:25:24;13.90;81.30
25366;DHT22;13315;48.274;-1.900;2022-11-18T04:27:50;13.90;81.50
25366;DHT22;13315;48.274;-1.900;2022-11-18T04:30:16;13.80;81.20
25366;DHT22;13315;48.274;-1.900;2022-11-18T04:32:41;13.80;81.30
25366;DHT22;13315;48.274;-1.900;2022-11-18T04:35:07;13.80;80.90
25366;DHT22;13315;48.274;-1.900;2022-11-18T04:37:33;13.80;81.40
25366;DHT22;13315;48.274;-1.900;2022-11-18T04:39:58;13.80;81.40
25366;DHT22;13315;48.274;-1.900;2022-11-18T04:42:24;13.80;81.50
25366;DHT22;13315;48.274;-1.900;2022-11-18T04:44:50;13.90;81.30
25366;DHT22;13315;48.274;-1.900;2022-11-18T04:47:16;13.90;81.50
25366;DHT22;13315;48.274;-1.900;2022-11-18T04:49:41;13.90;81.50
25366;DHT22;13315;48.274;-1.900;2022-11-18T04:52:07;13.80;81.50
25366;DHT22;13315;48.274;-1.900;2022-11-18T04:54:32;13.80;81.40
25366;DHT22;13315;48.274;-1.900;2022-11-18T04:56:58;13.90;81.50
25366;DHT22;13315;48.274;-1.900;2022-11-18T04:59:25;13.80;80.90
25366;DHT22;13315;48.274;-1.900;2022-11-18T05:01:51;13.80;81.30
25366;DHT22;13315;48.274;-1.900;2022-11-18T05:04:18;13.80;81.30
25366;DHT22;13315;48.274;-1.900;2022-11-18T05:06:43;13.80;81.40
25366;DHT22;13315;48.274;-1.900;2022-11-18T05:09:09;13.90;81.30
25366;DHT22;13315;48.274;-1.900;2022-11-18T05:11:35;13.80;80.90
25366;DHT22;13315;48.274;-1.900;2022-11-18T05:14:19;13.80;81.10
25366;DHT22;13315;48.274;-1.900;2022-11-18T05:16:44;13.80;81.40
25366;DHT22;13315;48.274;-1.900;2022-11-18T05:19:10;13.80;81.20
25366;DHT22;13315;48.274;-1.900;2022-11-18T05:21:35;13.80;81.10
25366;DHT22;13315;48.274;-1.900;2022-11-18T05:24:01;13.80;81.40
25366;DHT22;13315;48.274;-1.900;2022-11-18T05:26:27;13.80;81.30
25366;DHT22;13315;48.274;-1.900;2022-11-18T05:28:53;13.80;81.40
25366;DHT22;13315;48.274;-1.900;2022-11-18T05:31:18;13.80;80.80
25366;DHT22;13315;48.274;-1.900;2022-11-18T05:33:44;13.80;81.50
25366;DHT22;13315;48.274;-1.900;2022-11-18T05:36:11;13.80;81.40
25366;DHT22;13315;48.274;-1.900;2022-11-18T05:38:37;13.80;81.40
25366;DHT22;13315;48.274;-1.900;2022-11-18T05:41:02;13.80;81.40
25366;DHT22;13315;48.274;-1.900;2022-11-18T05:43:28;13.80;81.30
25366;DHT22;13315;48.274;-1.900;2022-11-18T05:45:54;13.80;81.20
25366;DHT22;13315;48.274;-1.900;2022-11-18T05:48:20;13.80;81.40
25366;DHT22;13315;48.274;-1.900;2022-11-18T05:50:46;13.80;81.30
25366;DHT22;13315;48.274;-1.900;2022-11-18T05:53:12;13.80;81.20
25366;DHT22;13315;48.274;-1.900;2022-11-18T05:55:39;13.80;81.40
25366;DHT22;13315;48.274;-1.900;2022-11-18T05:58:06;13.80;81.30
25366;DHT22;13315;48.274;-1.900;2022-11-18T06:00:32;13.80;81.20
25366;DHT22;13315;48.274;-1.900;2022-11-18T06:02:57;13.80;81.20
25366;DHT22;13315;48.274;-1.900;2022-11-18T06:05:23;13.80;81.00
25366;DHT22;13315;48.274;-1.900;2022-11-18T06:07:50;13.80;81.00
25366;DHT22;13315;48.274;-1.900;2022-11-18T06:10:17;13.80;81.00
25366;DHT22;13315;48.274;-1.900;2022-11-18T06:12:45;13.80;81.10
25366;DHT22;13315;48.274;-1.900;2022-11-18T06:15:17;13.80;81.70
25366;DHT22;13315;48.274;-1.900;2022-11-18T06:20:12;13.80;81.30
25366;DHT22;13315;48.274;-1.900;2022-11-18T06:22:38;13.80;81.00
25366;DHT22;13315;48.274;-1.900;2022-11-18T06:25:04;13.70;81.30
25366;DHT22;13315;48.274;-1.900;2022-11-18T06:27:30;13.80;81.30
25366;DHT22;13315;48.274;-1.900;2022-11-18T06:29:55;13.70;81.20
25366;DHT22;13315;48.274;-1.900;2022-11-18T06:32:21;13.80;81.10
25366;DHT22;13315;48.274;-1.900;2022-11-18T06:34:46;13.70;80.70
25366;DHT22;13315;48.274;-1.900;2022-11-18T06:37:13;13.70;80.50
25366;DHT22;13315;48.274;-1.900;2022-11-18T06:39:38;13.70;81.00
25366;DHT22;13315;48.274;-1.900;2022-11-18T06:42:04;13.70;81.10
25366;DHT22;13315;48.274;-1.900;2022-11-18T06:44:30;13.70;80.90
25366;DHT22;13315;48.274;-1.900;2022-11-18T06:46:55;13.70;81.00
25366;DHT22;13315;48.274;-1.900;2022-11-18T06:49:24;13.60;80.70
25366;DHT22;13315;48.274;-1.900;2022-11-18T06:51:50;13.60;80.80
25366;DHT22;13315;48.274;-1.900;2022-11-18T06:54:15;13.70;80.90
25366;DHT22;13315;48.274;-1.900;2022-11-18T06:56:41;13.60;80.80
25366;DHT22;13315;48.274;-1.900;2022-11-18T06:59:06;13.60;80.40
25366;DHT22;13315;48.274;-1.900;2022-11-18T07:01:36;13.60;81.00
25366;DHT22;13315;48.274;-1.900;2022-11-18T07:04:02;13.60;80.50
25366;DHT22;13315;48.274;-1.900;2022-11-18T07:06:29;13.60;81.30
25366;DHT22;13315;48.274;-1.900;2022-11-18T07:08:54;13.60;81.00
25366;DHT22;13315;48.274;-1.900;2022-11-18T07:11:22;13.60;81.30
25366;DHT22;13315;48.274;-1.900;2022-11-18T07:13:48;13.60;81.30
25366;DHT22;13315;48.274;-1.900;2022-11-18T07:16:17;13.60;81.30
25366;DHT22;13315;48.274;-1.900;2022-11-18T07:18:44;13.70;81.40
25366;DHT22;13315;48.274;-1.900;2022-11-18T07:21:11;13.70;81.20
25366;DHT22;13315;48.274;-1.900;2022-11-18T07:23:37;13.70;81.40
25366;DHT22;13315;48.274;-1.900;2022-11-18T07:26:03;13.70;81.00
25366;DHT22;13315;48.274;-1.900;2022-11-18T07:28:28;13.70;81.30
25366;DHT22;13315;48.274;-1.900;2022-11-18T07:31:03;13.70;81.00
25366;DHT22;13315;48.274;-1.900;2022-11-18T07:33:29;13.70;81.20
25366;DHT22;13315;48.274;-1.900;2022-11-18T07:35:58;13.70;81.20
25366;DHT22;13315;48.274;-1.900;2022-11-18T07:38:24;13.70;81.20
25366;DHT22;13315;48.274;-1.900;2022-11-18T07:40:50;13.60;81.10
25366;DHT22;13315;48.274;-1.900;2022-11-18T07:43:15;13.70;81.30
25366;DHT22;13315;48.274;-1.900;2022-11-18T07:45:41;13.70;81.30
25366;DHT22;13315;48.274;-1.900;2022-11-18T07:48:07;13.70;81.20
25366;DHT22;13315;48.274;-1.900;2022-11-18T07:50:32;13.60;81.20
25366;DHT22;13315;48.274;-1.900;2022-11-18T07:52:58;13.70;80.90
25366;DHT22;13315;48.274;-1.900;2022-11-18T07:55:23;13.70;80.80
25366;DHT22;13315;48.274;-1.900;2022-11-18T07:57:49;13.60;81.00
25366;DHT22;13315;48.274;-1.900;2022-11-18T08:00:15;13.60;81.20
25366;DHT22;13315;48.274;-1.900;2022-11-18T08:02:40;13.60;80.80
25366;DHT22;13315;48.274;-1.900;2022-11-18T08:05:08;13.60;81.00
25366;DHT22;13315;48.274;-1.900;2022-11-18T08:07:34;13.60;81.40
25366;DHT22;13315;48.274;-1.900;2022-11-18T08:09:59;13.70;81.20
25366;DHT22;13315;48.274;-1.900;2022-11-18T08:12:27;13.70;81.10
25366;DHT22;13315;48.274;-1.900;2022-11-18T08:14:55;13.60;81.20
25366;DHT22;13315;48.274;-1.900;2022-11-18T08:17:20;13.70;80.60
25366;DHT22;13315;48.274;-1.900;2022-11-18T08:19:46;13.60;81.10
25366;DHT22;13315;48.274;-1.900;2022-11-18T08:22:11;13.60;81.20
25366;DHT22;13315;48.274;-1.900;2022-11-18T08:24:37;13.70;81.10
25366;DHT22;13315;48.274;-1.900;2022-11-18T08:27:03;13.70;80.90
25366;DHT22;13315;48.274;-1.900;2022-11-18T08:29:28;13.60;80.60
25366;DHT22;13315;48.274;-1.900;2022-11-18T08:31:54;13.60;80.60
25366;DHT22;13315;48.274;-1.900;2022-11-18T08:34:20;13.60;80.70
25366;DHT22;13315;48.274;-1.900;2022-11-18T08:36:45;13.70;80.80
25366;DHT22;13315;48.274;-1.900;2022-11-18T08:39:11;13.70;80.90
25366;DHT22;13315;48.274;-1.900;2022-11-18T08:41:38;13.60;80.90
25366;DHT22;13315;48.274;-1.900;2022-11-18T08:44:04;13.70;80.70
25366;DHT22;13315;48.274;-1.900;2022-11-18T08:46:30;13.60;81.30
25366;DHT22;13315;48.274;-1.900;2022-11-18T08:48:56;13.70;81.30
25366;DHT22;13315;48.274;-1.900;2022-11-18T08:51:21;13.70;81.00
25366;DHT22;13315;48.274;-1.900;2022-11-18T08:53:47;13.70;81.00
25366;DHT22;13315;48.274;-1.900;2022-11-18T08:56:19;13.70;81.00
25366;DHT22;13315;48.274;-1.900;2022-11-18T08:58:45;13.70;80.60
25366;DHT22;13315;48.274;-1.900;2022-11-18T09:01:13;13.70;80.90
25366;DHT22;13315;48.274;-1.900;2022-11-18T09:03:38;13.70;80.90
25366;DHT22;13315;48.274;-1.900;2022-11-18T09:06:11;13.70;81.00
25366;DHT22;13315;48.274;-1.900;2022-11-18T09:08:38;13.70;81.10
25366;DHT22;13315;48.274;-1.900;2022-11-18T09:11:04;13.70;80.90
25366;DHT22;13315;48.274;-1.900;2022-11-18T09:13:30;13.70;80.70
25366;DHT22;13315;48.274;-1.900;2022-11-18T09:15:59;13.70;81.20
25366;DHT22;13315;48.274;-1.900;2022-11-18T09:18:25;13.70;80.50
25366;DHT22;13315;48.274;-1.900;2022-11-18T09:20:54;13.70;80.90
25366;DHT22;13315;48.274;-1.900;2022-11-18T09:23:20;13.70;80.60
25366;DHT22;13315;48.274;-1.900;2022-11-18T09:25:46;13.70;81.10
25366;DHT22;13315;48.274;-1.900;2022-11-18T09:28:12;13.70;81.50
25366;DHT22;13315;48.274;-1.900;2022-11-18T09:30:37;13.70;80.90
25366;DHT22;13315;48.274;-1.900;2022-11-18T09:33:03;13.70;81.40
25366;DHT22;13315;48.274;-1.900;2022-11-18T09:35:29;13.70;81.30
25366;DHT22;13315;48.274;-1.900;2022-11-18T09:37:54;13.70;81.20
25366;DHT22;13315;48.274;-1.900;2022-11-18T09:40:20;13.70;81.20
25366;DHT22;13315;48.274;-1.900;2022-11-18T09:45:32;13.70;81.70
25366;DHT22;13315;48.274;-1.900;2022-11-18T09:47:59;13.70;81.50
25366;DHT22;13315;48.274;-1.900;2022-11-18T09:50:27;13.70;81.40
25366;DHT22;13315;48.274;-1.900;2022-11-18T09:55:27;13.70;81.70
25366;DHT22;13315;48.274;-1.900;2022-11-18T09:57:53;13.70;81.70
25366;DHT22;13315;48.274;-1.900;2022-11-18T10:00:21;13.70;81.70
25366;DHT22;13315;48.274;-1.900;2022-11-18T10:13:08;13.80;81.80
25366;DHT22;13315;48.274;-1.900;2022-11-18T10:15:40;13.80;82.20
25366;DHT22;13315;48.274;-1.900;2022-11-18T10:18:25;13.80;81.80
25366;DHT22;13315;48.274;-1.900;2022-11-18T10:20:55;13.80;82.10
25366;DHT22;13315;48.274;-1.900;2022-11-18T10:23:25;13.80;82.20
25366;DHT22;13315;48.274;-1.900;2022-11-18T10:25:53;13.90;82.00
25366;DHT22;13315;48.274;-1.900;2022-11-18T10:28:29;13.90;81.90
25366;DHT22;13315;48.274;-1.900;2022-11-18T10:31:05;13.80;81.90
25366;DHT22;13315;48.274;-1.900;2022-11-18T10:33:31;13.80;81.90
25366;DHT22;13315;48.274;-1.900;2022-11-18T10:38:40;13.90;82.70
25366;DHT22;13315;48.274;-1.900;2022-11-18T10:41:17;13.90;82.00
25366;DHT22;13315;48.274;-1.900;2022-11-18T10:43:45;13.90;81.80
25366;DHT22;13315;48.274;-1.900;2022-11-18T10:46:28;13.90;82.40
25366;DHT22;13315;48.274;-1.900;2022-11-18T10:51:39;14.00;82.40
25366;DHT22;13315;48.274;-1.900;2022-11-18T10:54:12;14.00;82.10
25366;DHT22;13315;48.274;-1.900;2022-11-18T11:04:26;14.00;81.90
25366;DHT22;13315;48.274;-1.900;2022-11-18T11:06:53;14.10;82.30
25366;DHT22;13315;48.274;-1.900;2022-11-18T11:09:26;14.10;82.20
25366;DHT22;13315;48.274;-1.900;2022-11-18T11:12:02;14.10;82.40
25366;DHT22;13315;48.274;-1.900;2022-11-18T11:19:24;14.10;82.60
25366;DHT22;13315;48.274;-1.900;2022-11-18T11:21:50;14.20;82.90
25366;DHT22;13315;48.274;-1.900;2022-11-18T11:24:16;14.10;82.30
25366;DHT22;13315;48.274;-1.900;2022-11-18T11:26:45;14.20;82.30
25366;DHT22;13315;48.274;-1.900;2022-11-18T11:31:45;14.30;82.50
25366;DHT22;13315;48.274;-1.900;2022-11-18T11:34:23;14.20;82.20
25366;DHT22;13315;48.274;-1.900;2022-11-18T11:44:50;14.30;82.70
25366;DHT22;13315;48.274;-1.900;2022-11-18T11:47:32;14.30;82.00
25366;DHT22;13315;48.274;-1.900;2022-11-18T11:55:30;14.30;81.80
25366;DHT22;13315;48.274;-1.900;2022-11-18T11:58:03;14.40;82.80
25366;DHT22;13315;48.274;-1.900;2022-11-18T12:00:33;14.40;81.80
25366;DHT22;13315;48.274;-1.900;2022-11-18T12:05:30;14.40;81.80
25366;DHT22;13315;48.274;-1.900;2022-11-18T12:08:02;14.40;82.20
25366;DHT22;13315;48.274;-1.900;2022-11-18T12:10:29;14.40;82.00
25366;DHT22;13315;48.274;-1.900;2022-11-18T12:20:51;14.50;81.90
25366;DHT22;13315;48.274;-1.900;2022-11-18T12:23:18;14.40;81.50
25366;DHT22;13315;48.274;-1.900;2022-11-18T12:33:51;14.50;81.90
25366;DHT22;13315;48.274;-1.900;2022-11-18T12:41:53;14.50;81.40
25366;DHT22;13315;48.274;-1.900;2022-11-18T12:44:38;14.60;81.80
25366;DHT22;13315;48.274;-1.900;2022-11-18T12:47:07;14.60;81.60
25366;DHT22;13315;48.274;-1.900;2022-11-18T12:52:02;14.60;82.10
25366;DHT22;13315;48.274;-1.900;2022-11-18T12:54:46;14.60;80.90
25366;DHT22;13315;48.274;-1.900;2022-11-18T12:59:41;14.60;81.30
25366;DHT22;13315;48.274;-1.900;2022-11-18T13:04:36;14.60;80.50
25366;DHT22;13315;48.274;-1.900;2022-11-18T13:07:02;14.60;81.20
25366;DHT22;13315;48.274;-1.900;2022-11-18T13:09:29;14.60;81.20
25366;DHT22;13315;48.274;-1.900;2022-11-18T13:11:57;14.60;81.50
25366;DHT22;13315;48.274;-1.900;2022-11-18T13:14:34;14.70;81.40
25366;DHT22;13315;48.274;-1.900;2022-11-18T13:17:34;14.70;80.50
25366;DHT22;13315;48.274;-1.900;2022-11-18T13:20:29;14.70;80.70
25366;DHT22;13315;48.274;-1.900;2022-11-18T13:25:44;14.70;81.10
25366;DHT22;13315;48.274;-1.900;2022-11-18T13:30:50;14.70;80.80
25366;DHT22;13315;48.274;-1.900;2022-11-18T13:33:18;14.70;80.00
25366;DHT22;13315;48.274;-1.900;2022-11-18T13:35:44;14.70;80.60
25366;DHT22;13315;48.274;-1.900;2022-11-18T13:38:17;14.70;80.30
25366;DHT22;13315;48.274;-1.900;2022-11-18T13:40:44;14.70;80.60
25366;DHT22;13315;48.274;-1.900;2022-11-18T13:43:31;14.70;79.50
25366;DHT22;13315;48.274;-1.900;2022-11-18T13:46:01;14.70;80.60
25366;DHT22;13315;48.274;-1.900;2022-11-18T13:48:28;14.70;80.00
25366;DHT22;13315;48.274;-1.900;2022-11-18T13:50:54;14.80;80.60
25366;DHT22;13315;48.274;-1.900;2022-11-18T13:56:25;14.80;80.30
25366;DHT22;13315;48.274;-1.900;2022-11-18T13:58:44;14.80;80.20
25366;DHT22;13315;48.274;-1.900;2022-11-18T14:01:19;14.80;79.90
25366;DHT22;13315;48.274;-1.900;2022-11-18T14:03:53;14.80;79.90
25366;DHT22;13315;48.274;-1.900;2022-11-18T14:06:27;14.80;79.50
25366;DHT22;13315;48.274;-1.900;2022-11-18T14:09:13;14.80;79.80
25366;DHT22;13315;48.274;-1.900;2022-11-18T14:11:41;14.80;79.40
25366;DHT22;13315;48.274;-1.900;2022-11-18T14:14:08;14.80;80.00
25366;DHT22;13315;48.274;-1.900;2022-11-18T14:16:35;14.70;79.20
25366;DHT22;13315;48.274;-1.900;2022-11-18T14:19:01;14.70;79.50
25366;DHT22;13315;48.274;-1.900;2022-11-18T14:23:53;14.70;78.80
25366;DHT22;13315;48.274;-1.900;2022-11-18T14:26:27;14.70;79.60
25366;DHT22;13315;48.274;-1.900;2022-11-18T14:28:54;14.70;77.40
25366;DHT22;13315;48.274;-1.900;2022-11-18T14:31:25;14.70;78.80
25366;DHT22;13315;48.274;-1.900;2022-11-18T14:36:35;14.60;78.10
25366;DHT22;13315;48.274;-1.900;2022-11-18T14:39:01;14.60;78.70
25366;DHT22;13315;48.274;-1.900;2022-11-18T14:41:36;14.60;78.20
25366;DHT22;13315;48.274;-1.900;2022-11-18T14:44:13;14.60;78.60
25366;DHT22;13315;48.274;-1.900;2022-11-18T14:46:40;14.60;78.50
25366;DHT22;13315;48.274;-1.900;2022-11-18T14:49:09;14.60;78.80
25366;DHT22;13315;48.274;-1.900;2022-11-18T14:51:36;14.60;78.80
25366;DHT22;13315;48.274;-1.900;2022-11-18T14:54:02;14.60;79.70
25366;DHT22;13315;48.274;-1.900;2022-11-18T14:56:29;14.60;78.90
25366;DHT22;13315;48.274;-1.900;2022-11-18T14:58:54;14.60;78.10
25366;DHT22;13315;48.274;-1.900;2022-11-18T15:01:20;14.50;78.00
25366;DHT22;13315;48.274;-1.900;2022-11-18T15:03:46;14.40;77.80
25366;DHT22;13315;48.274;-1.900;2022-11-18T15:06:15;14.50;78.70
25366;DHT22;13315;48.274;-1.900;2022-11-18T15:08:41;14.50;78.90
25366;DHT22;13315;48.274;-1.900;2022-11-18T15:11:07;14.50;78.80
25366;DHT22;13315;48.274;-1.900;2022-11-18T15:13:33;14.50;78.30
25366;DHT22;13315;48.274;-1.900;2022-11-18T15:16:00;14.40;78.30
25366;DHT22;13315;48.274;-1.900;2022-11-18T15:18:25;14.50;79.30
25366;DHT22;13315;48.274;-1.900;2022-11-18T15:20:51;14.50;79.00
25366;DHT22;13315;48.274;-1.900;2022-11-18T15:23:17;14.40;78.40
25366;DHT22;13315;48.274;-1.900;2022-11-18T15:25:42;14.50;79.80
25366;DHT22;13315;48.274;-1.900;2022-11-18T15:28:08;14.50;79.10
25366;DHT22;13315;48.274;-1.900;2022-11-18T15:30:34;14.40;79.40
25366;DHT22;13315;48.274;-1.900;2022-11-18T15:32:59;14.50;79.50
25366;DHT22;13315;48.274;-1.900;2022-11-18T15:35:25;14.50;78.90
25366;DHT22;13315;48.274;-1.900;2022-11-18T15:37:50;14.50;79.60
25366;DHT22;13315;48.274;-1.900;2022-11-18T15:40:16;14.50;80.20
25366;DHT22;13315;48.274;-1.900;2022-11-18T15:42:42;14.50;80.10
25366;DHT22;13315;48.274;-1.900;2022-11-18T15:45:07;14.50;79.50
25366;DHT22;13315;48.274;-1.900;2022-11-18T15:47:33;14.50;79.50
25366;DHT22;13315;48.274;-1.900;2022-11-18T15:49:59;14.50;79.40
25366;DHT22;13315;48.274;-1.900;2022-11-18T15:52:24;14.50;80.00
25366;DHT22;13315;48.274;-1.900;2022-11-18T15:54:51;14.50;80.20
25366;DHT22;13315;48.274;-1.900;2022-11-18T15:57:17;14.50;80.00
25366;DHT22;13315;48.274;-1.900;2022-11-18T15:59:42;14.50;80.00
25366;DHT22;13315;48.274;-1.900;2022-11-18T16:02:08;14.50;80.20
25366;DHT22;13315;48.274;-1.900;2022-11-18T16:04:35;14.50;80.00
25366;DHT22;13315;48.274;-1.900;2022-11-18T16:07:00;14.50;80.20
25366;DHT22;13315;48.274;-1.900;2022-11-18T16:09:27;14.50;80.10
25366;DHT22;13315;48.274;-1.900;2022-11-18T16:12:12;14.50;80.10
25366;DHT22;13315;48.274;-1.900;2022-11-18T16:14:57;14.50;80.10
25366;DHT22;13315;48.274;-1.900;2022-11-18T16:17:42;14.50;80.20
25366;DHT22;13315;48.274;-1.900;2022-11-18T16:20:08;14.50;80.20
25366;DHT22;13315;48.274;-1.900;2022-11-18T16:22:34;14.50;80.20
25366;DHT22;13315;48.274;-1.900;2022-11-18T16:24:59;14.50;80.30
25366;DHT22;13315;48.274;-1.900;2022-11-18T16:27:25;14.50;80.30
25366;DHT22;13315;48.274;-1.900;2022-11-18T16:29:50;14.40;80.30
25366;DHT22;13315;48.274;-1.900;2022-11-18T16:32:16;14.40;80.10
25366;DHT22;13315;48.274;-1.900;2022-11-18T16:34:41;14.40;80.50
25366;DHT22;13315;48.274;-1.900;2022-11-18T16:37:07;14.40;80.00
25366;DHT22;13315;48.274;-1.900;2022-11-18T16:39:33;14.40;80.20
25366;DHT22;13315;48.274;-1.900;2022-11-18T16:41:59;14.40;79.70
25366;DHT22;13315;48.274;-1.900;2022-11-18T16:44:25;14.40;79.70
25366;DHT22;13315;48.274;-1.900;2022-11-18T16:46:51;14.40;80.60
25366;DHT22;13315;48.274;-1.900;2022-11-18T16:49:18;14.40;80.10
25366;DHT22;13315;48.274;-1.900;2022-11-18T16:51:45;14.40;80.30
25366;DHT22;13315;48.274;-1.900;2022-11-18T16:54:15;14.30;80.20
25366;DHT22;13315;48.274;-1.900;2022-11-18T16:56:42;14.30;80.10
25366;DHT22;13315;48.274;-1.900;2022-11-18T16:59:15;14.40;80.40
25366;DHT22;13315;48.274;-1.900;2022-11-18T17:01:41;14.40;80.60
25366;DHT22;13315;48.274;-1.900;2022-11-18T17:04:06;14.40;80.50
25366;DHT22;13315;48.274;-1.900;2022-11-18T17:06:32;14.40;80.70
25366;DHT22;13315;48.274;-1.900;2022-11-18T17:08:58;14.40;80.60
25366;DHT22;13315;48.274;-1.900;2022-11-18T17:11:23;14.40;80.60
25366;DHT22;13315;48.274;-1.900;2022-11-18T17:13:49;14.40;80.50
25366;DHT22;13315;48.274;-1.900;2022-11-18T17:16:16;14.40;80.50
25366;DHT22;13315;48.274;-1.900;2022-11-18T17:18:42;14.30;80.50
25366;DHT22;13315;48.274;-1.900;2022-11-18T17:21:09;14.40;80.60
25366;DHT22;13315;48.274;-1.900;2022-11-18T17:23:35;14.30;80.50
25366;DHT22;13315;48.274;-1.900;2022-11-18T17:26:02;14.40;80.50
25366;DHT22;13315;48.274;-1.900;2022-11-18T17:28:28;14.40;80.60